createdAt,value
2022-11-15T00:01:00.309Z,987.71
2022-11-15T00:02:01.980Z,987.75
2022-11-15T00:03:03.720Z,987.75
2022-11-15T00:04:05.414Z,987.74
2022-11-15T00:05:07.154Z,987.76
2022-11-15T00:06:08.916Z,987.7
2022-11-15T00:07:17.896Z,987.77
2022-11-15T00:08:12.481Z,987.82
2022-11-15T00:09:14.157Z,987.75
2022-11-15T00:10:15.823Z,987.7
2022-11-15T00:11:17.570Z,987.68
2022-11-15T00:12:19.283Z,987.72
2022-11-15T00:13:21.052Z,987.71
2022-11-15T00:14:22.794Z,987.65
2022-11-15T00:15:24.534Z,987.66
2022-11-15T00:16:26.235Z,987.62
2022-11-15T00:17:27.972Z,987.67
2022-11-15T00:18:29.697Z,987.65
2022-11-15T00:19:31.445Z,987.61
2022-11-15T00:20:33.191Z,987.61
2022-11-15T00:21:34.939Z,987.57
2022-11-15T00:24:57.651Z,987.64
2022-11-15T00:25:41.847Z,987.59
2022-11-15T00:26:43.641Z,987.55
2022-11-15T00:27:45.351Z,987.51
2022-11-15T00:28:47.047Z,987.46
2022-11-15T00:29:49.984Z,987.48
2022-11-15T00:30:50.533Z,987.47
2022-11-15T00:31:52.259Z,987.43
2022-11-15T00:32:54.006Z,987.44
2022-11-15T00:33:55.728Z,987.44
2022-11-15T00:34:57.475Z,987.44
2022-11-15T00:35:59.200Z,987.46
2022-11-15T00:37:00.926Z,987.46
2022-11-15T00:38:02.694Z,987.41
2022-11-15T00:39:04.449Z,987.48
2022-11-15T00:40:06.105Z,987.4
2022-11-15T00:41:09.406Z,987.45
2022-11-15T00:42:09.614Z,987.44
2022-11-15T00:43:11.325Z,987.42
2022-11-15T00:44:13.099Z,987.46
2022-11-15T00:45:14.800Z,987.39
2022-11-15T00:46:16.515Z,987.42
2022-11-15T00:47:18.247Z,987.41
2022-11-15T00:48:20.012Z,987.38
2022-11-15T00:49:21.724Z,987.43
2022-11-15T00:50:23.457Z,987.38
2022-11-15T00:51:25.245Z,987.43
2022-11-15T00:52:26.928Z,987.38
2022-11-15T00:53:28.976Z,987.39
2022-11-15T00:54:30.410Z,987.34
2022-11-15T00:55:32.172Z,987.35
2022-11-15T00:56:33.866Z,987.36
2022-11-15T00:57:35.603Z,987.37
2022-11-15T00:58:37.358Z,987.38
2022-11-15T00:59:39.061Z,987.34
2022-11-15T01:00:40.966Z,987.37
2022-11-15T01:01:42.513Z,987.43
2022-11-15T01:02:44.286Z,987.41
2022-11-15T01:03:46.011Z,987.4
2022-11-15T01:04:47.735Z,987.38
2022-11-15T01:05:49.456Z,987.35
2022-11-15T01:06:51.256Z,987.31
2022-11-15T01:07:52.939Z,987.3
2022-11-15T01:08:54.686Z,987.33
2022-11-15T01:09:56.385Z,987.31
2022-11-15T01:10:58.104Z,987.31
2022-11-15T01:11:59.853Z,987.32
2022-11-15T01:13:01.589Z,987.29
2022-11-15T01:14:03.344Z,987.3
2022-11-15T01:15:05.069Z,987.26
2022-11-15T01:16:06.837Z,987.29
2022-11-15T01:17:08.555Z,987.27
2022-11-15T01:18:10.256Z,987.3
2022-11-15T01:19:11.988Z,987.29
2022-11-15T01:20:13.704Z,987.29
2022-11-15T01:21:15.495Z,987.34
2022-11-15T01:22:17.196Z,987.3
2022-11-15T01:23:18.922Z,987.28
2022-11-15T01:24:20.653Z,987.28
2022-11-15T01:25:22.468Z,987.27
2022-11-15T01:26:24.136Z,987.17
2022-11-15T01:27:25.878Z,987.2
2022-11-15T01:28:27.596Z,987.19
2022-11-15T01:29:29.361Z,987.16
2022-11-15T01:30:31.072Z,987.18
2022-11-15T01:31:32.838Z,987.16
2022-11-15T01:32:34.559Z,987.18
2022-11-15T01:33:36.312Z,987.17
2022-11-15T01:34:38.013Z,987.12
2022-11-15T01:35:39.734Z,987.05
2022-11-15T01:36:41.517Z,987.1
2022-11-15T01:37:43.219Z,987.14
2022-11-15T01:38:44.965Z,987.09
2022-11-15T01:39:46.715Z,987.12
2022-11-15T01:40:48.395Z,987.11
2022-11-15T01:41:50.145Z,987.14
2022-11-15T01:42:51.897Z,987.08
2022-11-15T01:43:53.644Z,987.11
2022-11-15T01:44:55.391Z,987.06
2022-11-15T01:45:57.124Z,987.04
2022-11-15T01:46:58.811Z,987.04
2022-11-15T01:48:00.528Z,987.01
2022-11-15T01:49:02.320Z,987.03
2022-11-15T01:50:04.064Z,987.01
2022-11-15T01:51:05.770Z,986.98
2022-11-15T01:52:07.520Z,987.01
2022-11-15T01:53:09.286Z,986.98
2022-11-15T01:54:10.986Z,986.95
2022-11-15T01:55:12.759Z,986.97
2022-11-15T01:56:14.487Z,986.96
2022-11-15T01:57:16.159Z,986.92
2022-11-15T01:58:17.993Z,986.85
2022-11-15T01:59:19.696Z,986.96
2022-11-15T02:00:21.381Z,986.91
2022-11-15T02:01:23.240Z,986.91
2022-11-15T02:02:24.913Z,986.89
2022-11-15T02:03:26.584Z,986.86
2022-11-15T02:04:28.364Z,986.86
2022-11-15T02:05:30.047Z,986.83
2022-11-15T02:06:31.801Z,986.8
2022-11-15T02:07:33.647Z,986.77
2022-11-15T02:08:35.244Z,986.77
2022-11-15T02:09:37.030Z,986.79
2022-11-15T02:10:38.730Z,986.77
2022-11-15T02:11:40.544Z,986.76
2022-11-15T02:12:42.201Z,986.77
2022-11-15T02:13:43.942Z,986.76
2022-11-15T02:14:45.667Z,986.77
2022-11-15T02:15:47.372Z,986.75
2022-11-15T02:16:49.108Z,986.74
2022-11-15T02:17:50.829Z,986.73
2022-11-15T02:18:52.620Z,986.7
2022-11-15T02:19:54.357Z,986.69
2022-11-15T02:20:56.058Z,986.7
2022-11-15T02:21:57.817Z,986.68
2022-11-15T02:22:59.515Z,986.73
2022-11-15T02:24:01.325Z,986.69
2022-11-15T02:25:03.010Z,986.63
2022-11-15T02:26:04.737Z,986.61
2022-11-15T02:27:06.464Z,986.58
2022-11-15T02:28:08.189Z,986.65
2022-11-15T02:29:09.924Z,986.63
2022-11-15T02:30:11.675Z,986.58
2022-11-15T02:31:13.429Z,986.56
2022-11-15T02:32:15.162Z,986.53
2022-11-15T02:33:16.857Z,986.53
2022-11-15T02:34:18.583Z,986.52
2022-11-15T02:35:20.358Z,986.52
2022-11-15T02:36:22.094Z,986.51
2022-11-15T02:37:23.866Z,986.51
2022-11-15T02:38:25.556Z,986.58
2022-11-15T02:39:27.270Z,986.58
2022-11-15T02:40:29.009Z,986.53
2022-11-15T02:41:30.766Z,986.55
2022-11-15T02:42:32.474Z,986.53
2022-11-15T02:43:34.422Z,986.55
2022-11-15T02:44:35.949Z,986.54
2022-11-15T02:45:37.661Z,986.5
2022-11-15T02:46:39.391Z,986.53
2022-11-15T02:47:41.160Z,986.52
2022-11-15T02:48:42.880Z,986.56
2022-11-15T02:49:44.600Z,986.55
2022-11-15T02:50:46.336Z,986.5
2022-11-15T02:51:48.102Z,986.5
2022-11-15T02:52:49.855Z,986.42
2022-11-15T02:53:51.544Z,986.4
2022-11-15T02:54:53.305Z,986.39
2022-11-15T02:55:55.042Z,986.4
2022-11-15T02:56:56.782Z,986.45
2022-11-15T02:57:58.468Z,986.47
2022-11-15T02:59:00.274Z,986.45
2022-11-15T03:00:01.975Z,986.45
2022-11-15T03:01:03.976Z,986.39
2022-11-15T03:02:05.421Z,986.42
2022-11-15T03:03:07.133Z,986.42
2022-11-15T03:04:08.879Z,986.46
2022-11-15T03:05:10.647Z,986.47
2022-11-15T03:06:12.362Z,986.45
2022-11-15T03:07:14.184Z,986.46
2022-11-15T03:08:15.833Z,986.48
2022-11-15T03:09:17.553Z,986.46
2022-11-15T03:10:19.308Z,986.45
2022-11-15T03:11:21.021Z,986.47
2022-11-15T03:12:22.814Z,986.51
2022-11-15T03:13:24.526Z,986.53
2022-11-15T03:14:26.268Z,986.51
2022-11-15T03:15:27.980Z,986.47
2022-11-15T03:16:29.830Z,986.49
2022-11-15T03:17:31.434Z,986.49
2022-11-15T03:18:33.223Z,986.43
2022-11-15T03:19:34.945Z,986.45
2022-11-15T03:20:36.701Z,986.39
2022-11-15T03:21:38.422Z,986.43
2022-11-15T03:22:40.133Z,986.43
2022-11-15T03:23:41.833Z,986.45
2022-11-15T03:24:43.610Z,986.43
2022-11-15T03:25:45.290Z,986.47
2022-11-15T03:26:47.039Z,986.45
2022-11-15T03:27:48.815Z,986.46
2022-11-15T03:28:50.550Z,986.41
2022-11-15T03:29:52.265Z,986.44
2022-11-15T03:30:53.969Z,986.4
2022-11-15T03:31:55.752Z,986.39
2022-11-15T03:32:57.492Z,986.43
2022-11-15T03:33:59.202Z,986.35
2022-11-15T03:35:00.920Z,986.36
2022-11-15T03:36:02.643Z,986.37
2022-11-15T03:37:04.389Z,986.38
2022-11-15T03:38:06.269Z,986.38
2022-11-15T03:39:07.880Z,986.43
2022-11-15T03:40:09.637Z,986.35
2022-11-15T03:41:11.382Z,986.38
2022-11-15T03:42:13.039Z,986.39
2022-11-15T03:43:14.939Z,986.37
2022-11-15T03:44:16.536Z,986.4
2022-11-15T03:45:18.274Z,986.36
2022-11-15T03:46:20.040Z,986.4
2022-11-15T03:47:21.771Z,986.39
2022-11-15T03:48:23.459Z,986.42
2022-11-15T03:49:25.213Z,986.42
2022-11-15T03:50:26.953Z,986.43
2022-11-15T03:51:28.681Z,986.43
2022-11-15T03:52:30.390Z,986.43
2022-11-15T03:53:32.540Z,986.41
2022-11-15T03:54:33.922Z,986.43
2022-11-15T03:55:35.601Z,986.44
2022-11-15T03:56:37.327Z,986.44
2022-11-15T03:57:39.074Z,986.42
2022-11-15T03:58:40.808Z,986.44
2022-11-15T03:59:42.600Z,986.47
2022-11-15T04:00:44.330Z,986.49
2022-11-15T04:01:46.032Z,986.52
2022-11-15T04:02:47.781Z,986.53
2022-11-15T04:03:49.473Z,986.51
2022-11-15T04:04:51.264Z,986.55
2022-11-15T04:05:52.983Z,986.53
2022-11-15T04:06:54.760Z,986.47
2022-11-15T04:07:56.454Z,986.51
2022-11-15T04:08:58.150Z,986.5
2022-11-15T04:09:59.919Z,986.55
2022-11-15T04:11:02.481Z,986.49
2022-11-15T04:12:03.373Z,986.54
2022-11-15T04:13:05.130Z,986.52
2022-11-15T04:14:06.842Z,986.55
2022-11-15T04:15:08.580Z,986.5
2022-11-15T04:16:10.320Z,986.52
2022-11-15T04:17:12.037Z,986.49
2022-11-15T04:18:13.742Z,986.45
2022-11-15T04:19:15.527Z,986.5
2022-11-15T04:20:17.227Z,986.48
2022-11-15T04:21:18.979Z,986.46
2022-11-15T04:22:20.771Z,986.48
2022-11-15T04:23:22.415Z,986.42
2022-11-15T04:24:24.143Z,986.41
2022-11-15T04:25:31.067Z,986.36
2022-11-15T04:26:27.629Z,986.36
2022-11-15T04:27:29.356Z,986.41
2022-11-15T04:28:31.089Z,986.38
2022-11-15T04:29:32.825Z,986.4
2022-11-15T04:30:34.613Z,986.37
2022-11-15T04:31:36.365Z,986.34
2022-11-15T04:32:38.030Z,986.37
2022-11-15T04:33:39.745Z,986.31
2022-11-15T04:34:41.529Z,986.34
2022-11-15T04:35:43.257Z,986.3
2022-11-15T04:36:45.016Z,986.34
2022-11-15T04:37:49.471Z,986.3
2022-11-15T04:38:48.422Z,986.3
2022-11-15T04:39:50.172Z,986.31
2022-11-15T04:40:51.930Z,986.29
2022-11-15T04:41:53.675Z,986.29
2022-11-15T04:42:59.458Z,986.29
2022-11-15T04:43:57.153Z,986.29
2022-11-15T04:44:58.867Z,986.26
2022-11-15T04:46:00.554Z,986.22
2022-11-15T04:47:02.302Z,986.21
2022-11-15T04:48:04.084Z,986.19
2022-11-15T04:49:05.777Z,986.19
2022-11-15T04:50:07.542Z,986.21
2022-11-15T04:51:09.278Z,986.18
2022-11-15T04:52:10.992Z,986.17
2022-11-15T04:53:12.727Z,986.11
2022-11-15T04:54:14.474Z,986.09
2022-11-15T04:55:16.193Z,986.07
2022-11-15T04:56:17.940Z,986.09
2022-11-15T04:57:19.655Z,986.05
2022-11-15T04:58:21.436Z,986.03
2022-11-15T04:59:23.120Z,985.97
2022-11-15T05:00:24.893Z,985.97
2022-11-15T05:01:26.660Z,985.96
2022-11-15T05:02:28.341Z,985.88
2022-11-15T05:03:30.380Z,985.82
2022-11-15T05:04:31.816Z,985.81
2022-11-15T05:05:33.519Z,985.83
2022-11-15T05:06:35.263Z,985.79
2022-11-15T05:07:37.090Z,985.81
2022-11-15T05:08:38.758Z,985.85
2022-11-15T05:09:40.449Z,985.84
2022-11-15T05:10:42.253Z,985.86
2022-11-15T05:11:43.919Z,985.88
2022-11-15T05:12:45.700Z,985.85
2022-11-15T05:13:47.397Z,985.84
2022-11-15T05:14:49.126Z,985.81
2022-11-15T05:15:50.908Z,985.84
2022-11-15T05:16:52.618Z,985.88
2022-11-15T05:17:54.313Z,985.9
2022-11-15T05:18:56.083Z,985.9
2022-11-15T05:19:57.769Z,985.83
2022-11-15T05:20:59.577Z,985.76
2022-11-15T05:22:01.240Z,985.77
2022-11-15T05:23:03.014Z,985.73
2022-11-15T05:24:04.750Z,985.72
2022-11-15T05:25:06.457Z,985.76
2022-11-15T05:26:09.465Z,985.82
2022-11-15T05:27:09.960Z,985.89
2022-11-15T05:28:11.665Z,985.88
2022-11-15T05:29:13.430Z,985.9
2022-11-15T05:30:15.169Z,985.89
2022-11-15T05:31:16.852Z,985.88
2022-11-15T05:32:18.596Z,985.89
2022-11-15T05:33:20.382Z,985.85
2022-11-15T05:34:22.098Z,985.87
2022-11-15T05:35:23.795Z,985.88
2022-11-15T05:36:25.563Z,985.88
2022-11-15T05:37:58.159Z,985.93
2022-11-15T05:38:59.905Z,985.89
2022-11-15T05:40:01.613Z,985.93
2022-11-15T05:41:03.402Z,985.96
2022-11-15T05:42:06.388Z,985.94
2022-11-15T05:43:06.841Z,985.98
2022-11-15T05:44:08.588Z,985.97
2022-11-15T05:45:10.328Z,985.96
2022-11-15T05:46:12.078Z,986
2022-11-15T05:47:13.782Z,985.94
2022-11-15T05:48:17.747Z,985.98
2022-11-15T05:49:22.416Z,985.93
2022-11-15T05:50:25.700Z,985.91
2022-11-15T05:51:27.944Z,985.92
2022-11-15T05:52:32.734Z,985.93
2022-11-15T05:53:34.781Z,985.93
2022-11-15T05:54:36.185Z,985.93
2022-11-15T05:55:37.947Z,985.93
2022-11-15T05:56:39.686Z,985.91
2022-11-15T05:57:41.371Z,985.9
2022-11-15T05:58:43.130Z,985.9
2022-11-15T05:59:44.885Z,985.88
2022-11-15T06:00:51.900Z,985.85
2022-11-15T06:01:53.627Z,985.85
2022-11-15T06:02:55.160Z,985.87
2022-11-15T06:03:56.932Z,985.89
2022-11-15T06:04:58.639Z,985.88
2022-11-15T06:06:00.347Z,985.87
2022-11-15T06:07:02.115Z,985.9
2022-11-15T06:08:03.837Z,985.91
2022-11-15T06:09:05.596Z,985.91
2022-11-15T06:10:07.279Z,985.89
2022-11-15T06:11:08.969Z,985.93
2022-11-15T06:12:10.729Z,985.93
2022-11-15T06:13:12.400Z,985.91
2022-11-15T06:14:14.195Z,985.91
2022-11-15T06:15:15.912Z,985.88
2022-11-15T06:16:17.589Z,985.93
2022-11-15T06:17:19.313Z,985.91
2022-11-15T06:18:21.083Z,985.85
2022-11-15T06:19:22.761Z,985.87
2022-11-15T06:20:24.525Z,985.87
2022-11-15T06:21:26.252Z,985.85
2022-11-15T06:22:27.993Z,985.87
2022-11-15T06:23:29.930Z,985.9
2022-11-15T06:24:31.435Z,985.96
2022-11-15T06:25:33.172Z,985.98
2022-11-15T06:26:34.889Z,985.98
2022-11-15T06:27:36.638Z,985.93
2022-11-15T06:28:38.395Z,985.99
2022-11-15T06:29:54.380Z,986.01
2022-11-15T06:30:57.301Z,985.99
2022-11-15T06:31:59.073Z,985.93
2022-11-15T06:33:00.771Z,985.99
2022-11-15T06:34:02.564Z,985.94
2022-11-15T06:35:05.657Z,986
2022-11-15T06:36:06.014Z,985.98
2022-11-15T06:37:07.762Z,985.96
2022-11-15T06:38:09.450Z,985.9
2022-11-15T06:39:11.191Z,985.91
2022-11-15T06:40:12.961Z,985.93
2022-11-15T06:41:14.663Z,985.98
2022-11-15T06:42:16.392Z,985.96
2022-11-15T06:43:18.116Z,986
2022-11-15T06:44:19.859Z,986.01
2022-11-15T06:45:21.595Z,985.98
2022-11-15T06:46:23.326Z,986
2022-11-15T06:47:25.085Z,985.98
2022-11-15T06:48:26.804Z,986.06
2022-11-15T06:49:28.541Z,985.99
2022-11-15T06:50:30.308Z,985.98
2022-11-15T06:51:32.013Z,986.01
2022-11-15T06:52:33.841Z,985.99
2022-11-15T06:53:35.701Z,985.97
2022-11-15T06:54:37.223Z,985.9
2022-11-15T06:55:38.937Z,985.89
2022-11-15T06:56:40.732Z,985.88
2022-11-15T06:57:42.483Z,985.94
2022-11-15T06:58:44.229Z,985.98
2022-11-15T06:59:45.920Z,986.03
2022-11-15T07:00:47.737Z,986.06
2022-11-15T07:01:49.390Z,986.04
2022-11-15T07:02:51.129Z,986.06
2022-11-15T07:03:52.849Z,986.05
2022-11-15T07:04:54.598Z,986.01
2022-11-15T07:05:56.269Z,986.02
2022-11-15T07:06:58.020Z,986.05
2022-11-15T07:07:59.693Z,986
2022-11-15T07:09:01.492Z,986.04
2022-11-15T07:10:03.210Z,986.03
2022-11-15T07:11:05.091Z,986.01
2022-11-15T07:12:07.858Z,985.99
2022-11-15T07:13:08.362Z,985.94
2022-11-15T07:14:10.139Z,985.98
2022-11-15T07:15:11.836Z,985.89
2022-11-15T07:16:13.623Z,985.86
2022-11-15T07:17:15.349Z,985.96
2022-11-15T07:18:17.084Z,985.92
2022-11-15T07:19:19.864Z,985.88
2022-11-15T07:20:20.524Z,985.93
2022-11-15T07:21:27.231Z,985.96
2022-11-15T07:22:24.013Z,985.98
2022-11-15T07:23:25.771Z,986.02
2022-11-15T07:24:27.474Z,986.05
2022-11-15T07:25:29.215Z,986.07
2022-11-15T07:26:31.004Z,986.15
2022-11-15T07:27:32.631Z,986.13
2022-11-15T07:28:34.435Z,986.12
2022-11-15T07:29:36.152Z,986.17
2022-11-15T07:30:41.264Z,986.15
2022-11-15T07:31:43.709Z,986.14
2022-11-15T07:32:47.955Z,986.12
2022-11-15T07:33:48.306Z,986.1
2022-11-15T07:34:50.000Z,986.13
2022-11-15T07:35:53.025Z,986.14
2022-11-15T07:36:53.485Z,986.1
2022-11-15T07:37:56.636Z,986.13
2022-11-15T07:38:58.065Z,986.09
2022-11-15T07:39:58.712Z,986.06
2022-11-15T07:41:00.514Z,986.02
2022-11-15T07:42:02.157Z,986.04
2022-11-15T07:43:03.841Z,985.97
2022-11-15T07:44:05.595Z,986.01
2022-11-15T07:45:07.335Z,986.02
2022-11-15T07:46:08.090Z,986
2022-11-15T07:47:10.816Z,986.03
2022-11-15T07:48:12.556Z,986.07
2022-11-15T07:49:14.337Z,986.04
2022-11-15T07:50:16.105Z,986
2022-11-15T07:51:17.719Z,986.08
2022-11-15T07:52:19.447Z,986.03
2022-11-15T07:53:21.223Z,986.11
2022-11-15T07:54:22.964Z,986.1
2022-11-15T07:55:24.658Z,986.12
2022-11-15T07:56:26.417Z,986.13
2022-11-15T07:57:28.173Z,986.15
2022-11-15T07:58:29.861Z,986.09
2022-11-15T07:59:31.610Z,986.12
2022-11-15T08:00:33.344Z,986.15
2022-11-15T08:01:35.195Z,986.07
2022-11-15T08:02:36.968Z,986.08
2022-11-15T08:03:38.546Z,986.08
2022-11-15T08:04:40.369Z,986.07
2022-11-15T08:05:42.002Z,986.06
2022-11-15T08:06:43.728Z,986.03
2022-11-15T08:07:45.464Z,986.05
2022-11-15T08:08:47.223Z,986.05
2022-11-15T08:09:48.985Z,986.03
2022-11-15T08:10:50.674Z,986.03
2022-11-15T08:11:52.462Z,986
2022-11-15T08:12:54.187Z,985.97
2022-11-15T08:13:55.952Z,985.87
2022-11-15T08:14:57.634Z,985.96
2022-11-15T08:15:59.390Z,985.97
2022-11-15T08:17:01.115Z,985.99
2022-11-15T08:18:02.830Z,985.93
2022-11-15T08:19:04.562Z,985.96
2022-11-15T08:20:06.263Z,985.98
2022-11-15T08:21:08.042Z,985.96
2022-11-15T08:22:09.727Z,985.91
2022-11-15T08:23:11.472Z,985.97
2022-11-15T08:24:13.281Z,985.94
2022-11-15T08:25:15.020Z,985.95
2022-11-15T08:26:16.692Z,985.96
2022-11-15T08:27:18.510Z,985.93
2022-11-15T08:28:20.141Z,985.93
2022-11-15T08:29:21.868Z,985.95
2022-11-15T08:30:23.635Z,985.89
2022-11-15T08:31:25.373Z,985.92
2022-11-15T08:32:27.083Z,985.93
2022-11-15T08:33:29.143Z,985.9
2022-11-15T08:34:30.541Z,985.92
2022-11-15T08:35:32.280Z,985.95
2022-11-15T08:36:43.031Z,985.89
2022-11-15T08:37:35.729Z,985.91
2022-11-15T08:38:37.508Z,985.91
2022-11-15T08:39:39.230Z,985.92
2022-11-15T08:40:40.946Z,985.89
2022-11-15T08:41:42.714Z,985.88
2022-11-15T08:42:44.428Z,985.88
2022-11-15T08:43:46.184Z,985.9
2022-11-15T08:44:47.938Z,985.9
2022-11-15T08:45:49.632Z,985.92
2022-11-15T08:46:51.339Z,985.91
2022-11-15T08:47:54.579Z,985.86
2022-11-15T08:48:54.827Z,985.87
2022-11-15T08:49:56.636Z,985.86
2022-11-15T08:50:58.313Z,985.82
2022-11-15T08:52:00.088Z,985.91
2022-11-15T08:53:01.746Z,985.84
2022-11-15T08:54:03.532Z,985.88
2022-11-15T08:55:05.243Z,985.87
2022-11-15T08:56:06.971Z,985.84
2022-11-15T08:57:08.758Z,985.84
2022-11-15T08:58:10.415Z,985.74
2022-11-15T08:59:12.188Z,985.85
2022-11-15T09:00:13.898Z,985.8
2022-11-15T09:01:18.552Z,985.82
2022-11-15T09:02:17.356Z,985.79
2022-11-15T09:03:19.087Z,985.8
2022-11-15T09:04:20.843Z,985.78
2022-11-15T09:05:22.584Z,985.77
2022-11-15T09:06:24.302Z,985.79
2022-11-15T09:07:26.150Z,985.77
2022-11-15T09:08:52.169Z,985.79
2022-11-15T09:09:29.496Z,985.78
2022-11-15T09:10:31.234Z,985.8
2022-11-15T09:11:33.005Z,985.77
2022-11-15T09:12:34.743Z,985.73
2022-11-15T09:13:36.464Z,985.75
2022-11-15T09:14:38.186Z,985.7
2022-11-15T09:15:39.956Z,985.76
2022-11-15T09:16:41.674Z,985.73
2022-11-15T09:17:43.378Z,985.71
2022-11-15T09:18:45.108Z,985.69
2022-11-15T09:19:46.842Z,985.71
2022-11-15T09:20:48.610Z,985.67
2022-11-15T09:21:50.332Z,985.66
2022-11-15T09:22:52.085Z,985.67
2022-11-15T09:23:53.786Z,985.65
2022-11-15T09:24:55.551Z,985.7
2022-11-15T09:25:57.267Z,985.68
2022-11-15T09:26:59.028Z,985.71
2022-11-15T09:28:00.734Z,985.71
2022-11-15T09:29:02.463Z,985.69
2022-11-15T09:30:04.195Z,985.7
2022-11-15T09:31:05.903Z,985.63
2022-11-15T09:32:07.727Z,985.66
2022-11-15T09:33:09.351Z,985.61
2022-11-15T09:34:11.091Z,985.61
2022-11-15T09:35:12.808Z,985.61
2022-11-15T09:36:14.542Z,985.58
2022-11-15T09:37:16.332Z,985.63
2022-11-15T09:38:18.055Z,985.59
2022-11-15T09:39:19.779Z,985.6
2022-11-15T09:40:21.613Z,985.61
2022-11-15T09:41:23.303Z,985.49
2022-11-15T09:42:24.963Z,985.52
2022-11-15T09:43:26.689Z,985.55
2022-11-15T09:44:28.435Z,985.57
2022-11-15T09:45:30.184Z,985.53
2022-11-15T09:46:31.903Z,985.52
2022-11-15T09:47:33.708Z,985.52
2022-11-15T09:48:35.504Z,985.49
2022-11-15T09:49:37.113Z,985.43
2022-11-15T09:50:38.825Z,985.49
2022-11-15T09:51:40.657Z,985.47
2022-11-15T09:52:42.312Z,985.47
2022-11-15T09:54:23.659Z,985.46
2022-11-15T09:54:53.245Z,985.48
2022-11-15T09:55:47.553Z,985.48
2022-11-15T09:56:49.225Z,985.57
2022-11-15T09:57:50.984Z,985.58
2022-11-15T09:58:52.729Z,985.59
2022-11-15T09:59:54.430Z,985.61
2022-11-15T10:00:56.301Z,985.68
2022-11-15T10:01:57.898Z,985.63
2022-11-15T10:02:59.694Z,985.62
2022-11-15T10:04:01.393Z,985.65
2022-11-15T10:05:03.151Z,985.59
2022-11-15T10:06:04.837Z,985.57
2022-11-15T10:07:06.643Z,985.51
2022-11-15T10:08:08.365Z,985.57
2022-11-15T10:09:10.067Z,985.55
2022-11-15T10:10:11.846Z,985.53
2022-11-15T10:11:37.743Z,985.55
2022-11-15T10:12:15.244Z,985.55
2022-11-15T10:13:17.064Z,985.53
2022-11-15T10:14:18.745Z,985.49
2022-11-15T10:15:20.471Z,985.49
2022-11-15T10:16:22.188Z,985.51
2022-11-15T10:17:23.939Z,985.5
2022-11-15T10:18:25.650Z,985.53
2022-11-15T10:19:27.416Z,985.5
2022-11-15T10:20:29.123Z,985.47
2022-11-15T10:21:30.917Z,985.51
2022-11-15T10:22:32.590Z,985.49
2022-11-15T10:23:34.395Z,985.48
2022-11-15T10:24:36.211Z,985.46
2022-11-15T10:25:37.808Z,985.42
2022-11-15T10:26:39.574Z,985.43
2022-11-15T10:27:41.265Z,985.38
2022-11-15T10:28:42.995Z,985.39
2022-11-15T10:29:44.823Z,985.35
2022-11-15T10:30:46.449Z,985.33
2022-11-15T10:31:48.211Z,985.29
2022-11-15T10:32:49.944Z,985.32
2022-11-15T10:33:51.669Z,985.26
2022-11-15T10:34:53.455Z,985.25
2022-11-15T10:35:55.183Z,985.21
2022-11-15T10:36:56.895Z,985.23
2022-11-15T10:37:58.640Z,985.23
2022-11-15T10:39:00.424Z,985.16
2022-11-15T10:40:02.056Z,985.14
2022-11-15T10:41:03.816Z,985.14
2022-11-15T10:42:10.941Z,985.11
2022-11-15T10:43:07.293Z,985.07
2022-11-15T10:44:08.992Z,985.1
2022-11-15T10:45:10.746Z,985.04
2022-11-15T10:46:39.294Z,985.03
2022-11-15T10:47:14.188Z,984.99
2022-11-15T10:48:15.956Z,984.96
2022-11-15T10:49:17.673Z,984.96
2022-11-15T10:50:19.443Z,984.93
2022-11-15T10:51:21.133Z,984.89
2022-11-15T10:52:22.857Z,984.83
2022-11-15T10:53:24.614Z,984.85
2022-11-15T10:54:26.332Z,984.77
2022-11-15T10:55:28.121Z,984.73
2022-11-15T10:56:29.853Z,984.68
2022-11-15T10:57:31.539Z,984.65
2022-11-15T10:58:33.682Z,984.56
2022-11-15T10:59:38.960Z,984.6
2022-11-15T11:00:36.719Z,984.55
2022-11-15T11:01:38.549Z,984.59
2022-11-15T11:02:40.218Z,984.54
2022-11-15T11:03:54.556Z,984.53
2022-11-15T11:04:59.211Z,984.48
2022-11-15T11:06:00.927Z,984.47
2022-11-15T11:07:02.700Z,984.52
2022-11-15T11:08:04.362Z,984.47
2022-11-15T11:09:06.122Z,984.44
2022-11-15T11:10:29.083Z,984.42
2022-11-15T11:11:09.645Z,984.39
2022-11-15T11:12:11.281Z,984.35
2022-11-15T11:13:13.233Z,984.43
2022-11-15T11:14:14.785Z,984.44
2022-11-15T11:15:16.506Z,984.38
2022-11-15T11:16:18.203Z,984.39
2022-11-15T11:17:19.947Z,984.33
2022-11-15T11:18:21.654Z,984.38
2022-11-15T11:19:23.447Z,984.35
2022-11-15T11:20:25.135Z,984.36
2022-11-15T11:21:31.993Z,984.38
2022-11-15T11:22:28.602Z,984.41
2022-11-15T11:23:30.750Z,984.43
2022-11-15T11:24:32.129Z,984.45
2022-11-15T11:25:33.858Z,984.4
2022-11-15T11:26:35.532Z,984.44
2022-11-15T11:27:37.357Z,984.44
2022-11-15T11:28:39.033Z,984.44
2022-11-15T11:29:40.736Z,984.43
2022-11-15T11:30:42.486Z,984.43
2022-11-15T11:31:44.264Z,984.36
2022-11-15T11:32:45.982Z,984.36
2022-11-15T11:33:47.870Z,984.34
2022-11-15T11:34:49.453Z,984.37
2022-11-15T11:35:51.192Z,984.37
2022-11-15T11:36:52.913Z,984.29
2022-11-15T11:37:54.691Z,984.31
2022-11-15T11:38:56.388Z,984.31
2022-11-15T11:39:58.105Z,984.31
2022-11-15T11:40:59.903Z,984.33
2022-11-15T11:42:01.630Z,984.37
2022-11-15T11:43:03.350Z,984.36
2022-11-15T11:44:05.057Z,984.36
2022-11-15T11:45:06.798Z,984.26
2022-11-15T11:46:08.572Z,984.26
2022-11-15T11:47:10.265Z,984.27
2022-11-15T11:48:12.002Z,984.27
2022-11-15T11:49:13.778Z,984.25
2022-11-15T11:50:15.493Z,984.18
2022-11-15T11:51:17.211Z,984.25
2022-11-15T11:52:18.963Z,984.24
2022-11-15T11:53:20.682Z,984.2
2022-11-15T11:54:22.419Z,984.18
2022-11-15T11:55:24.164Z,984.15
2022-11-15T11:56:25.868Z,984.16
2022-11-15T11:57:27.600Z,984.11
2022-11-15T11:58:29.675Z,984.06
2022-11-15T11:59:31.115Z,984.09
2022-11-15T12:00:32.885Z,984.06
2022-11-15T12:01:34.638Z,984.02
2022-11-15T12:02:36.334Z,983.99
2022-11-15T12:03:38.007Z,984.01
2022-11-15T12:04:39.766Z,983.96
2022-11-15T12:05:41.521Z,984.01
2022-11-15T12:06:43.210Z,983.96
2022-11-15T12:07:45.028Z,983.93
2022-11-15T12:08:46.758Z,983.95
2022-11-15T12:09:48.450Z,983.93
2022-11-15T12:10:50.186Z,983.95
2022-11-15T12:11:51.921Z,983.89
2022-11-15T12:12:53.635Z,983.93
2022-11-15T12:13:55.391Z,983.91
2022-11-15T12:14:57.114Z,983.92
2022-11-15T12:15:58.824Z,983.9
2022-11-15T12:17:00.618Z,983.88
2022-11-15T12:18:02.329Z,983.84
2022-11-15T12:19:04.027Z,983.86
2022-11-15T12:20:05.794Z,983.79
2022-11-15T12:21:07.528Z,983.77
2022-11-15T12:22:09.229Z,983.75
2022-11-15T12:23:10.975Z,983.71
2022-11-15T12:24:12.818Z,983.68
2022-11-15T12:25:14.480Z,983.64
2022-11-15T12:26:16.226Z,983.67
2022-11-15T12:27:20.645Z,983.66
2022-11-15T12:28:19.657Z,983.63
2022-11-15T12:29:21.364Z,983.59
2022-11-15T12:30:23.131Z,983.6
2022-11-15T12:31:24.855Z,983.62
2022-11-15T12:32:26.583Z,983.61
2022-11-15T12:33:28.301Z,983.6
2022-11-15T12:34:30.036Z,983.58
2022-11-15T12:35:31.796Z,983.55
2022-11-15T12:36:33.507Z,983.52
2022-11-15T12:37:35.239Z,983.46
2022-11-15T12:38:36.989Z,983.47
2022-11-15T12:39:38.786Z,983.47
2022-11-15T12:40:40.434Z,983.43
2022-11-15T12:41:42.216Z,983.45
2022-11-15T12:42:43.920Z,983.42
2022-11-15T12:43:45.706Z,983.42
2022-11-15T12:44:47.405Z,983.42
2022-11-15T12:45:49.145Z,983.41
2022-11-15T12:46:50.864Z,983.42
2022-11-15T12:47:52.668Z,983.39
2022-11-15T12:48:54.362Z,983.35
2022-11-15T12:49:56.069Z,983.34
2022-11-15T12:50:57.837Z,983.31
2022-11-15T12:51:59.520Z,983.29
2022-11-15T12:53:01.301Z,983.26
2022-11-15T12:54:03.006Z,983.29
2022-11-15T12:55:04.709Z,983.31
2022-11-15T12:56:06.476Z,983.28
2022-11-15T12:57:08.191Z,983.26